Time;durP1;ratioP1;P1;durP2;ratioP2;P2;SDS_P1;SDS_P2;PMS_P1;PMS_P2;Temp;Humidity;BMP_temperature;BMP_pressure;BME280_temperature;BME280_humidity;BME280_pressure;Samples;Min_cycle;Max_cycle;Signal;HPM_P1;HPM_P2
2022/12/02 00:04:18;;;;;;;16.80;8.40;;;;;;;0.14;90.63;99501.92;213969;1310;22458;-72
2022/12/02 00:09:31;;;;;;;17.80;8.80;;;;;;;0.13;90.72;99491.98;214158;1310;24399;-71
2022/12/02 00:14:34;;;;;;;17.90;8.20;;;;;;;0.13;90.71;99491.27;213996;1310;22481;-73
2022/12/02 00:19:36;;;;;;;17.00;9.10;;;;;;;0.11;90.79;99485.50;214069;1310;25216;-73
2022/12/02 00:24:38;;;;;;;18.20;9.50;;;;;;;0.13;90.79;99485.96;213839;1310;24362;-72
2022/12/02 00:29:39;;;;;;;19.10;8.90;;;;;;;0.14;90.88;99487.85;214031;1310;23786;-72
2022/12/02 00:34:41;;;;;;;19.80;9.00;;;;;;;0.15;90.91;99486.16;214128;1310;25355;-72
2022/12/02 00:39:43;;;;;;;15.90;8.20;;;;;;;0.18;90.98;99479.06;214205;1310;22511;-73
2022/12/02 00:50:11;;;;;;;17.40;8.70;;;;;;;0.20;91.11;99485.51;213656;1310;22595;-73
2022/12/02 00:55:13;;;;;;;17.20;8.30;;;;;;;0.20;90.84;99480.16;214062;1310;22479;-72
2022/12/02 01:00:15;;;;;;;18.70;9.60;;;;;;;0.16;90.78;99481.24;213950;1310;25349;-72
2022/12/02 01:05:17;;;;;;;16.90;8.20;;;;;;;0.11;90.65;99479.47;213953;1310;25280;-72
2022/12/02 01:10:19;;;;;;;16.90;8.20;;;;;;;0.10;90.71;99481.45;213925;1310;22617;-72
2022/12/02 01:15:21;;;;;;;17.40;8.60;;;;;;;0.09;90.50;99483.56;213878;1310;22627;-70
2022/12/02 01:20:23;;;;;;;15.60;7.50;;;;;;;0.07;90.45;99480.84;213957;1310;25262;-71
2022/12/02 01:25:24;;;;;;;14.30;7.40;;;;;;;0.05;90.29;99476.58;214096;1307;22672;-71
2022/12/02 01:30:27;;;;;;;15.40;8.30;;;;;;;0.05;90.31;99474.77;213953;1310;22600;-72
2022/12/02 01:35:29;;;;;;;18.70;7.80;;;;;;;0.06;90.34;99477.48;214208;1310;23763;-72
2022/12/02 01:40:32;;;;;;;17.40;8.60;;;;;;;0.06;90.14;99470.84;214075;1310;23729;-71
2022/12/02 01:45:34;;;;;;;18.00;8.50;;;;;;;0.05;90.23;99466.90;213885;1310;25261;-71
2022/12/02 01:50:36;;;;;;;11.80;6.60;;;;;;;0.04;89.96;99468.27;213986;1310;24305;-72
2022/12/02 01:55:38;;;;;;;14.20;7.50;;;;;;;0.04;90.07;99466.45;214129;1311;24317;-72
2022/12/02 02:00:40;;;;;;;15.40;7.40;;;;;;;0.03;90.13;99464.35;213933;1312;22513;-73
2022/12/02 02:05:42;;;;;;;18.60;9.30;;;;;;;0.01;90.03;99458.67;214236;1312;22477;-70
2022/12/02 02:10:45;;;;;;;17.80;8.40;;;;;;;0.03;90.18;99458.23;214007;1312;22473;-73
2022/12/02 02:15:48;;;;;;;16.70;7.80;;;;;;;0.03;90.08;99460.16;214119;1312;23277;-72
2022/12/02 02:20:52;;;;;;;18.00;8.10;;;;;;;-0.01;89.75;99455.88;213959;1312;24469;-70
2022/12/02 02:25:58;;;;;;;16.90;8.00;;;;;;;0.01;90.15;99451.22;214171;1311;25506;-73
2022/12/02 02:31:05;;;;;;;15.60;7.30;;;;;;;0.05;90.14;99451.62;214167;1311;26798;-73
2022/12/02 02:36:11;;;;;;;17.50;8.40;;;;;;;0.03;90.11;99446.43;214028;1281;22522;-72
2022/12/02 02:41:13;;;;;;;18.00;8.40;;;;;;;-0.01;89.88;99444.13;214008;1312;22502;-72
2022/12/02 02:46:15;;;;;;;15.90;7.70;;;;;;;-0.01;89.92;99446.03;213979;1312;25001;-72
2022/12/02 02:51:18;;;;;;;21.30;8.10;;;;;;;-0.02;90.15;99441.73;213966;1310;22958;-73
2022/12/02 02:56:20;;;;;;;14.60;6.50;;;;;;;-0.04;90.08;99436.91;213929;1310;24280;-72
2022/12/02 03:01:28;;;;;;;18.40;8.30;;;;;;;-0.05;90.10;99432.02;213972;1312;22600;-72
2022/12/02 03:06:32;;;;;;;16.30;7.50;;;;;;;-0.10;89.81;99429.49;213990;1312;24720;-72
2022/12/02 03:11:37;;;;;;;15.90;7.10;;;;;;;-0.11;89.81;99431.11;214083;1311;25293;-72
2022/12/02 03:16:39;;;;;;;18.50;8.80;;;;;;;-0.13;89.91;99429.05;214063;1312;22502;-72
2022/12/02 03:21:41;;;;;;;16.30;7.00;;;;;;;-0.14;90.01;99429.85;214074;1310;24245;-72
2022/12/02 03:26:44;;;;;;;15.80;7.20;;;;;;;-0.13;90.23;99425.64;213923;1312;22475;-72
2022/12/02 03:31:46;;;;;;;10.80;6.10;;;;;;;-0.18;89.99;99426.37;214045;1312;25237;-73
2022/12/02 03:36:48;;;;;;;17.30;7.90;;;;;;;-0.23;89.85;99418.50;214016;1305;22599;-71
2022/12/02 03:41:50;;;;;;;11.70;5.90;;;;;;;-0.27;89.84;99416.07;214065;1311;24257;-72
2022/12/02 03:46:52;;;;;;;16.20;7.30;;;;;;;-0.27;90.03;99407.52;214115;1310;25502;-72
2022/12/02 03:51:54;;;;;;;12.10;6.40;;;;;;;-0.26;90.06;99409.27;214055;1311;22469;-72
2022/12/02 03:56:56;;;;;;;13.40;6.60;;;;;;;-0.28;90.07;99414.82;214041;1284;25475;-72
2022/12/02 04:01:58;;;;;;;9.40;5.30;;;;;;;-0.31;89.94;99415.02;213873;1312;22463;-72
2022/12/02 04:07:00;;;;;;;14.60;6.80;;;;;;;-0.31;89.93;99421.58;214146;1313;25442;-72
2022/12/02 04:12:02;;;;;;;12.60;6.30;;;;;;;-0.31;90.07;99420.20;214050;1310;24279;-72
2022/12/02 04:17:04;;;;;;;12.40;6.40;;;;;;;-0.31;89.81;99425.38;214081;1311;22640;-73
2022/12/02 04:22:09;;;;;;;12.30;6.50;;;;;;;-0.33;89.75;99418.09;214060;1312;22466;-72
2022/12/02 04:27:11;;;;;;;10.30;5.80;;;;;;;-0.37;89.70;99419.55;213952;1313;24430;-72
2022/12/02 04:32:12;;;;;;;11.10;6.20;;;;;;;-0.40;89.93;99417.94;214093;1311;24379;-72
2022/12/02 04:37:14;;;;;;;13.60;6.90;;;;;;;-0.43;90.00;99413.05;214018;1312;22536;-72
2022/12/02 04:42:16;;;;;;;15.40;8.00;;;;;;;-0.48;89.97;99412.27;214154;1311;22509;-72
2022/12/02 04:47:18;;;;;;;15.60;7.60;;;;;;;-0.51;89.99;99410.48;214123;1310;25344;-72
2022/12/02 04:52:20;;;;;;;17.30;8.00;;;;;;;-0.60;89.82;99403.15;214186;1313;25327;-72
2022/12/02 04:57:21;;;;;;;13.80;6.70;;;;;;;-0.73;89.57;99402.20;214059;1312;22606;-73
2022/12/02 05:02:31;;;;;;;15.20;7.40;;;;;;;-0.75;90.00;99407.98;213023;1313;22462;-71
2022/12/02 05:07:33;;;;;;;17.70;8.50;;;;;;;-0.79;90.16;99405.50;212992;1311;22652;-72
2022/12/02 05:12:35;;;;;;;13.40;7.10;;;;;;;-0.81;90.31;99406.09;214153;1313;23237;-73
2022/12/02 05:17:37;;;;;;;16.70;8.00;;;;;;;-0.82;90.23;99412.12;213913;1312;22478;-72
2022/12/02 05:22:43;;;;;;;17.50;7.90;;;;;;;-0.83;90.72;99412.12;214106;1312;22526;-72
2022/12/02 05:27:46;;;;;;;12.60;6.80;;;;;;;-0.83;90.35;99411.39;213992;1310;22697;-72
2022/12/02 05:32:48;;;;;;;15.70;7.80;;;;;;;-0.85;90.41;99411.63;213902;1312;24310;-72
2022/12/02 05:37:50;;;;;;;15.80;7.70;;;;;;;-0.86;90.38;99410.34;214132;1311;22694;-73
2022/12/02 05:42:52;;;;;;;13.30;7.50;;;;;;;-0.83;90.56;99407.95;214114;1313;22500;-71
2022/12/02 05:47:54;;;;;;;14.40;7.30;;;;;;;-0.83;90.48;99413.42;213996;1311;22493;-72
2022/12/02 05:52:56;;;;;;;14.80;6.50;;;;;;;-0.85;90.62;99414.83;214052;1312;22630;-71
2022/12/02 05:58:00;;;;;;;15.80;7.50;;;;;;;-0.83;90.69;99417.95;214144;1313;22549;-73
2022/12/02 06:03:07;;;;;;;14.80;7.70;;;;;;;-0.82;90.69;99423.46;214143;1313;22660;-73
2022/12/02 06:08:14;;;;;;;13.30;7.10;;;;;;;-0.83;90.63;99420.25;214113;1313;23139;-72
2022/12/02 06:13:22;;;;;;;13.70;7.10;;;;;;;-0.79;90.81;99422.63;214156;1312;22456;-72
2022/12/02 06:18:31;;;;;;;12.90;6.10;;;;;;;-0.76;90.42;99424.20;214060;1310;22426;-73
2022/12/02 06:23:33;;;;;;;10.90;6.10;;;;;;;-0.76;90.40;99424.00;212691;1313;23943;-73
2022/12/02 06:28:37;;;;;;;11.20;5.20;;;;;;;-0.79;90.26;99426.63;212877;1312;24308;-73
2022/12/02 06:33:40;;;;;;;14.90;6.60;;;;;;;-0.81;90.38;99427.44;214264;1288;25463;-73
2022/12/02 06:39:19;;;;;;;10.10;5.30;;;;;;;-0.84;89.91;99427.17;212864;1312;25331;-71
2022/12/02 06:49:44;;;;;;;8.80;4.80;;;;;;;-0.86;90.24;99432.27;214383;1291;22820;-72
2022/12/02 06:54:46;;;;;;;9.80;5.00;;;;;;;-0.82;90.40;99433.54;214718;1294;25456;-72
2022/12/02 06:59:50;;;;;;;9.70;4.60;;;;;;;-0.80;90.16;99429.86;214899;1284;22455;-74
2022/12/02 07:04:54;;;;;;;9.80;4.90;;;;;;;-0.79;89.91;99436.21;214831;1285;22470;-73
2022/12/02 07:09:58;;;;;;;8.80;4.90;;;;;;;-0.78;90.23;99438.98;215146;1284;146717;-78
2022/12/02 07:15:19;;;;;;;10.40;5.40;;;;;;;-0.73;90.34;99442.91;214896;1284;139155;-74
2022/12/02 07:20:36;;;;;;;8.70;5.00;;;;;;;-0.66;90.25;99445.61;214610;1284;138641;-73
2022/12/02 07:25:43;;;;;;;10.80;5.20;;;;;;;-0.63;90.23;99445.17;214659;1286;22509;-74
2022/12/02 07:30:54;;;;;;;10.00;5.00;;;;;;;-0.61;90.15;99447.73;214902;1284;138375;-73
2022/12/02 07:35:56;;;;;;;12.70;6.00;;;;;;;-0.61;90.20;99449.27;214856;1285;138805;-73
2022/12/02 07:40:58;;;;;;;9.20;5.20;;;;;;;-0.57;90.24;99448.75;214684;1281;138695;-73
2022/12/02 07:46:00;;;;;;;9.70;4.90;;;;;;;-0.54;90.00;99451.84;214958;1284;139601;-72
2022/12/02 07:51:02;;;;;;;9.00;5.50;;;;;;;-0.54;90.02;99451.11;214330;1288;139311;-73
2022/12/02 07:56:05;;;;;;;9.60;5.40;;;;;;;-0.52;90.01;99454.91;214601;1284;138714;-73
2022/12/02 08:01:06;;;;;;;9.60;4.70;;;;;;;-0.51;90.10;99455.67;214508;1290;22485;-73
2022/12/02 08:06:08;;;;;;;10.20;4.40;;;;;;;-0.53;89.78;99456.58;214435;1284;138408;-73
2022/12/02 08:11:10;;;;;;;8.90;4.70;;;;;;;-0.53;89.92;99456.33;214827;1284;138990;-72
2022/12/02 08:16:12;;;;;;;12.30;5.00;;;;;;;-0.50;89.87;99458.76;214721;1286;138516;-73
2022/12/02 08:21:14;;;;;;;7.20;4.20;;;;;;;-0.49;89.80;99459.98;214475;1278;138752;-73
2022/12/02 08:26:16;;;;;;;7.60;4.40;;;;;;;-0.50;89.66;99458.11;214534;1284;138623;-73
2022/12/02 08:31:17;;;;;;;9.70;5.40;;;;;;;-0.49;89.84;99460.06;214465;1288;25263;-74
2022/12/02 08:36:20;;;;;;;10.90;5.40;;;;;;;-0.50;89.41;99455.39;214238;1286;138628;-73
2022/12/02 08:41:22;;;;;;;9.50;4.60;;;;;;;-0.48;89.83;99456.23;214288;1284;138510;-75
2022/12/02 08:46:25;;;;;;;7.20;4.50;;;;;;;-0.49;89.51;99457.02;214421;1288;138762;-73
2022/12/02 08:51:27;;;;;;;9.90;5.60;;;;;;;-0.47;89.46;99462.78;214577;1284;139211;-72
2022/12/02 08:56:31;;;;;;;8.70;4.80;;;;;;;-0.45;89.57;99463.59;214352;1281;138557;-72
2022/12/02 09:01:33;;;;;;;8.40;4.50;;;;;;;-0.45;89.45;99464.23;214571;1289;22469;-72
2022/12/02 09:06:35;;;;;;;9.10;5.20;;;;;;;-0.43;89.61;99463.40;214366;1284;138223;-73
2022/12/02 09:11:37;;;;;;;12.20;5.80;;;;;;;-0.42;89.37;99459.60;214978;1287;139267;-72
2022/12/02 09:16:39;;;;;;;11.10;4.70;;;;;;;-0.41;89.43;99461.26;214598;1302;139574;-70
2022/12/02 09:21:41;;;;;;;8.80;4.00;;;;;;;-0.42;89.22;99463.89;214404;1287;139533;-73
2022/12/02 09:26:43;;;;;;;10.50;5.00;;;;;;;-0.41;89.54;99462.52;214302;1284;138602;-72
2022/12/02 09:31:44;;;;;;;10.90;5.30;;;;;;;-0.44;89.34;99461.00;214346;1289;22467;-72
2022/12/02 09:36:46;;;;;;;11.50;4.90;;;;;;;-0.45;89.10;99459.70;214409;1294;25378;-73
2022/12/02 09:41:48;;;;;;;9.80;4.60;;;;;;;-0.44;89.15;99458.29;214338;1294;138386;-72
2022/12/02 09:46:50;;;;;;;8.60;4.80;;;;;;;-0.42;89.05;99452.50;214204;1289;138911;-72
2022/12/02 09:51:59;;;;;;;8.10;4.90;;;;;;;-0.40;88.83;99453.08;214410;1288;138468;-72
2022/12/02 09:57:01;;;;;;;9.00;4.00;;;;;;;-0.35;89.17;99447.85;214810;1286;138845;-74
2022/12/02 10:02:05;;;;;;;9.00;4.90;;;;;;;-0.33;88.69;99449.24;215023;1282;139422;-72
2022/12/02 10:07:08;;;;;;;10.40;5.10;;;;;;;-0.35;88.75;99444.73;215278;1281;25325;-72
2022/12/02 10:12:10;;;;;;;7.20;3.80;;;;;;;-0.32;88.62;99447.46;215206;1291;138851;-72
2022/12/02 10:17:18;;;;;;;9.00;4.50;;;;;;;-0.26;88.75;99438.30;214452;1286;138531;-72
2022/12/02 10:22:20;;;;;;;8.90;4.20;;;;;;;-0.20;88.67;99436.25;214426;1310;138894;-72
2022/12/02 10:27:22;;;;;;;7.80;4.20;;;;;;;-0.18;88.39;99432.70;214219;1297;138517;-71
2022/12/02 10:32:26;;;;;;;9.20;4.60;;;;;;;-0.22;88.06;99429.00;214543;1284;140253;-72
2022/12/02 10:37:32;;;;;;;7.00;3.60;;;;;;;-0.25;88.27;99426.13;214306;1289;24386;-72
2022/12/02 10:42:35;;;;;;;11.20;4.60;;;;;;;-0.21;88.29;99426.20;213951;1288;138188;-72
2022/12/02 10:47:37;;;;;;;9.20;5.10;;;;;;;-0.18;88.38;99426.54;214207;1289;139178;-72
2022/12/02 10:52:48;;;;;;;10.30;5.00;;;;;;;-0.17;88.37;99425.48;214253;1281;138640;-74
2022/12/02 10:57:50;;;;;;;9.10;4.50;;;;;;;-0.18;88.10;99423.65;214302;1288;138858;-72
2022/12/02 11:02:57;;;;;;;7.50;4.30;;;;;;;-0.22;88.06;99421.55;214293;1310;138517;-72
2022/12/02 11:08:05;;;;;;;11.10;5.00;;;;;;;-0.25;88.16;99411.25;214326;1284;138502;-71
2022/12/02 11:13:11;;;;;;;6.80;4.50;;;;;;;-0.30;88.03;99405.91;215172;1288;25389;-73
2022/12/02 11:18:29;;;;;;;9.10;5.30;;;;;;;-0.35;88.17;99402.74;214211;1290;138443;-73
2022/12/02 11:23:33;;;;;;;11.80;5.60;;;;;;;-0.38;88.15;99406.98;214350;1286;138317;-72
2022/12/02 11:29:04;;;;;;;10.50;4.50;;;;;;;-0.41;88.05;99402.81;214291;1289;138666;-71
2022/12/02 11:34:24;;;;;;;9.50;5.00;;;;;;;-0.38;88.21;99403.71;214162;1284;138662;-71
2022/12/02 11:39:41;;;;;;;12.00;5.40;;;;;;;-0.36;88.32;99399.94;214576;1285;138562;-72
2022/12/02 11:44:43;;;;;;;10.50;5.80;;;;;;;-0.34;88.40;99401.52;214395;1295;138711;-72
2022/12/02 11:49:45;;;;;;;10.60;5.60;;;;;;;-0.33;88.39;99399.83;214307;1287;22467;-72
2022/12/02 11:54:59;;;;;;;11.90;6.60;;;;;;;-0.32;88.29;99396.43;214238;1298;23222;-72
2022/12/02 12:00:01;;;;;;;12.60;6.80;;;;;;;-0.30;88.33;99395.20;214406;1284;138937;-71
2022/12/02 12:05:12;;;;;;;11.30;5.20;;;;;;;-0.26;88.44;99394.98;214271;1284;139307;-71
2022/12/02 12:10:31;;;;;;;13.90;6.10;;;;;;;-0.29;88.19;99390.71;214667;1284;138923;-72
2022/12/02 12:15:51;;;;;;;16.80;6.90;;;;;;;-0.30;88.25;99393.63;212268;1284;138879;-73
2022/12/02 12:20:52;;;;;;;17.20;7.10;;;;;;;-0.26;88.38;99393.14;214426;1284;138734;-73
2022/12/02 12:25:54;;;;;;;15.20;7.10;;;;;;;-0.24;88.37;99394.24;214774;1284;140193;-72
2022/12/02 12:30:58;;;;;;;12.50;6.40;;;;;;;-0.29;88.22;99392.77;214528;1286;22508;-72
2022/12/02 12:36:01;;;;;;;15.20;6.90;;;;;;;-0.33;88.48;99388.90;215081;1284;138548;-71
2022/12/02 12:41:03;;;;;;;16.60;7.10;;;;;;;-0.38;88.41;99387.91;214762;1280;138775;-71
2022/12/02 12:46:05;;;;;;;13.00;6.30;;;;;;;-0.42;88.47;99384.50;214618;1294;138775;-72
2022/12/02 12:51:08;;;;;;;12.70;6.60;;;;;;;-0.46;88.40;99384.35;214423;1304;138868;-73
2022/12/02 12:56:10;;;;;;;12.50;7.40;;;;;;;-0.49;88.46;99386.89;214656;1281;139344;-74
2022/12/02 13:01:12;;;;;;;14.10;6.70;;;;;;;-0.47;88.55;99384.34;214634;1286;25316;-72
2022/12/02 13:06:14;;;;;;;14.60;7.40;;;;;;;-0.44;88.65;99381.64;214773;1291;138566;-73
2022/12/02 13:11:16;;;;;;;16.60;7.60;;;;;;;-0.45;88.68;99373.48;215232;1286;139104;-73
2022/12/02 13:16:17;;;;;;;16.40;7.50;;;;;;;-0.44;88.68;99372.52;215127;1281;138721;-70
2022/12/02 13:21:19;;;;;;;13.70;7.30;;;;;;;-0.41;88.58;99373.94;214717;1289;138700;-72
2022/12/02 13:26:21;;;;;;;17.50;8.10;;;;;;;-0.39;88.60;99370.83;214775;1281;138680;-72
2022/12/02 13:31:23;;;;;;;14.70;7.60;;;;;;;-0.40;88.63;99374.59;214810;1281;22493;-72
2022/12/02 13:36:25;;;;;;;19.90;9.00;;;;;;;-0.43;88.40;99370.70;214585;1280;138430;-71
2022/12/02 13:41:27;;;;;;;20.20;8.70;;;;;;;-0.43;88.58;99373.49;214724;1284;139354;-73
2022/12/02 13:46:29;;;;;;;13.60;7.70;;;;;;;-0.44;88.70;99374.58;214658;1281;138802;-73
2022/12/02 13:51:31;;;;;;;19.90;7.40;;;;;;;-0.44;88.68;99383.70;214586;1295;138713;-73
2022/12/02 13:56:33;;;;;;;14.10;7.20;;;;;;;-0.46;88.69;99391.34;214891;1278;138701;-74
2022/12/02 14:01:35;;;;;;;13.30;7.40;;;;;;;-0.57;88.49;99387.45;214768;1284;23161;-73
2022/12/02 14:06:37;;;;;;;17.70;8.00;;;;;;;-0.59;88.98;99389.84;214924;1286;138901;-73
2022/12/02 14:11:39;;;;;;;18.20;9.40;;;;;;;-0.60;89.00;99394.44;215432;1281;139349;-74
2022/12/02 14:16:41;;;;;;;19.10;9.30;;;;;;;-0.61;88.89;99395.02;214954;1295;138844;-74
2022/12/02 14:21:43;;;;;;;14.40;7.50;;;;;;;-0.63;88.86;99396.50;214702;1295;139346;-73
2022/12/02 14:26:44;;;;;;;19.40;8.70;;;;;;;-0.66;89.02;99395.16;214900;1295;138801;-74
2022/12/02 14:31:46;;;;;;;20.80;8.20;;;;;;;-0.64;89.29;99404.40;214875;1284;25521;-72
2022/12/02 14:36:48;;;;;;;14.40;7.40;;;;;;;-0.62;89.15;99407.31;214797;1281;138608;-71
2022/12/02 14:41:50;;;;;;;16.90;8.20;;;;;;;-0.63;89.14;99405.09;214772;1281;138948;-74
2022/12/02 14:46:52;;;;;;;19.70;7.90;;;;;;;-0.65;89.23;99405.45;214893;1281;138780;-72
2022/12/02 14:51:54;;;;;;;16.70;8.00;;;;;;;-0.71;89.11;99396.70;214922;1281;138666;-73
2022/12/02 14:56:56;;;;;;;15.10;7.80;;;;;;;-0.74;89.16;99400.56;214784;1281;138791;-73
2022/12/02 15:01:58;;;;;;;17.10;8.70;;;;;;;-0.75;89.04;99402.39;214545;1279;22601;-73
2022/12/02 15:07:00;;;;;;;21.20;10.60;;;;;;;-0.78;89.28;99403.42;214160;1281;25584;-73
2022/12/02 15:12:02;;;;;;;15.90;9.20;;;;;;;-0.77;89.62;99402.38;214053;1310;22468;-73
2022/12/02 15:17:04;;;;;;;15.60;8.30;;;;;;;-0.78;89.53;99403.71;214317;1310;25216;-72
2022/12/02 15:22:05;;;;;;;16.70;8.30;;;;;;;-0.79;89.70;99404.38;214163;1307;25430;-74
2022/12/02 15:27:07;;;;;;;18.70;9.40;;;;;;;-0.81;89.66;99403.84;214179;1310;24256;-73
2022/12/02 15:32:09;;;;;;;20.50;9.60;;;;;;;-0.79;89.94;99400.07;214165;1310;24249;-73
2022/12/02 15:37:19;;;;;;;18.80;9.20;;;;;;;-0.82;89.73;99399.02;214296;1310;25273;-72
2022/12/02 15:42:21;;;;;;;20.00;9.20;;;;;;;-0.85;90.08;99404.27;214079;1310;22481;-73
2022/12/02 15:47:23;;;;;;;18.10;8.60;;;;;;;-0.89;89.66;99403.89;214103;1305;22607;-72
2022/12/02 15:52:25;;;;;;;20.20;9.10;;;;;;;-0.96;89.66;99405.36;214180;1310;22478;-72
2022/12/02 15:57:27;;;;;;;21.40;9.30;;;;;;;-1.02;89.51;99408.70;214114;1310;22682;-73
2022/12/02 16:02:29;;;;;;;21.40;10.30;;;;;;;-1.03;89.72;99413.23;214041;1309;23767;-72
2022/12/02 16:07:31;;;;;;;20.10;9.80;;;;;;;-1.04;89.98;99417.96;214013;1310;22961;-73
2022/12/02 16:12:33;;;;;;;18.30;8.70;;;;;;;-1.08;90.02;99419.35;214137;1310;22479;-73
2022/12/02 16:17:35;;;;;;;16.90;9.10;;;;;;;-1.12;90.07;99419.02;214203;1310;22580;-73
2022/12/02 16:22:37;;;;;;;20.30;9.40;;;;;;;-1.16;90.02;99418.36;214146;1310;24343;-74
2022/12/02 16:27:39;;;;;;;15.90;8.10;;;;;;;-1.15;90.32;99419.54;214081;1310;24199;-73
2022/12/02 16:32:41;;;;;;;21.70;8.80;;;;;;;-1.15;90.35;99424.42;214237;1298;22486;-72
2022/12/02 16:37:43;;;;;;;19.90;9.00;;;;;;;-1.12;90.38;99421.66;214284;1305;22913;-73
2022/12/02 16:42:45;;;;;;;20.10;9.20;;;;;;;-1.09;90.67;99426.32;214195;1310;24604;-72
2022/12/02 16:47:47;;;;;;;19.90;8.90;;;;;;;-1.08;90.48;99427.50;214074;1309;25240;-73
2022/12/02 16:52:49;;;;;;;20.20;8.90;;;;;;;-1.04;90.53;99428.08;213996;1310;22542;-72
2022/12/02 16:57:50;;;;;;;20.80;8.90;;;;;;;-1.03;90.29;99426.63;214192;1307;24117;-73
2022/12/02 17:02:52;;;;;;;19.60;9.10;;;;;;;-1.06;90.35;99436.73;213983;1310;24176;-73
2022/12/02 17:07:54;;;;;;;21.40;9.00;;;;;;;-1.07;90.41;99432.48;213841;1310;22666;-73
2022/12/02 17:12:56;;;;;;;21.30;9.40;;;;;;;-1.11;90.09;99435.90;214149;1310;22487;-73
2022/12/02 17:17:58;;;;;;;18.30;9.00;;;;;;;-1.13;90.62;99439.80;214318;1310;25483;-74
2022/12/02 17:23:00;;;;;;;19.10;9.60;;;;;;;-1.11;90.62;99443.38;214248;1310;23492;-71
2022/12/02 17:28:02;;;;;;;21.80;9.50;;;;;;;-1.13;90.35;99448.73;214139;1310;24451;-71
2022/12/02 17:33:04;;;;;;;18.60;9.10;;;;;;;-1.15;90.50;99447.52;214061;1310;22948;-73
2022/12/02 17:38:05;;;;;;;20.50;10.20;;;;;;;-1.09;90.54;99450.55;214086;1310;22461;-72
2022/12/02 17:43:07;;;;;;;17.60;8.30;;;;;;;-1.14;90.13;99453.19;214197;1310;24279;-73
2022/12/02 17:48:09;;;;;;;18.30;8.40;;;;;;;-1.19;90.34;99457.58;214093;1310;25539;-73
2022/12/02 17:53:11;;;;;;;20.10;8.70;;;;;;;-1.23;90.54;99454.36;214345;1310;22612;-71
2022/12/02 17:58:13;;;;;;;19.50;9.40;;;;;;;-1.24;90.63;99453.46;214079;1310;22642;-73
2022/12/02 18:03:15;;;;;;;25.30;10.40;;;;;;;-1.22;90.93;99459.06;214017;1310;25599;-73
2022/12/02 18:08:19;;;;;;;22.50;9.60;;;;;;;-1.18;90.99;99463.20;214071;1306;22597;-74
2022/12/02 18:13:20;;;;;;;20.90;10.50;;;;;;;-1.16;90.90;99463.09;214032;1305;22599;-72
2022/12/02 18:18:22;;;;;;;21.70;9.60;;;;;;;-1.16;90.61;99461.56;214252;1310;24440;-72
2022/12/02 18:23:24;;;;;;;46.00;20.80;;;;;;;-1.17;90.88;99463.13;214077;1310;22536;-72
2022/12/02 18:28:28;;;;;;;20.60;9.70;;;;;;;-1.11;91.04;99459.83;214148;1310;25511;-73
2022/12/02 18:33:30;;;;;;;21.60;10.70;;;;;;;-1.14;90.81;99459.52;214109;1297;22496;-73
2022/12/02 18:38:32;;;;;;;21.70;10.30;;;;;;;-1.18;90.94;99463.56;214151;1310;22623;-73
2022/12/02 18:43:34;;;;;;;25.90;11.40;;;;;;;-1.21;90.96;99460.52;214026;1304;22516;-75
2022/12/02 18:48:37;;;;;;;19.20;8.80;;;;;;;-1.22;91.10;99462.99;214303;1310;25503;-73
2022/12/02 18:53:39;;;;;;;24.40;10.50;;;;;;;-1.23;91.08;99461.33;214078;1310;23148;-73
2022/12/02 18:58:41;;;;;;;21.70;9.30;;;;;;;-1.27;90.92;99461.30;213934;1310;22547;-73
2022/12/02 19:03:42;;;;;;;37.20;15.90;;;;;;;-1.28;91.08;99458.11;214209;1305;22583;-72
2022/12/02 19:08:44;;;;;;;24.60;10.30;;;;;;;-1.24;91.29;99451.98;214263;1305;22483;-72
2022/12/02 19:13:46;;;;;;;29.10;11.50;;;;;;;-1.27;91.10;99451.48;214082;1310;25291;-73
2022/12/02 19:18:49;;;;;;;23.90;9.40;;;;;;;-1.29;91.14;99456.91;214189;1310;24363;-73
2022/12/02 19:23:51;;;;;;;21.50;9.00;;;;;;;-1.34;91.27;99462.55;214277;1310;25139;-73
2022/12/02 19:28:53;;;;;;;23.00;11.30;;;;;;;-1.40;91.31;99462.77;214230;1310;22623;-74
2022/12/02 19:33:54;;;;;;;23.30;9.70;;;;;;;-1.41;91.43;99464.30;213968;1310;24722;-73
2022/12/02 19:38:56;;;;;;;23.60;11.10;;;;;;;-1.40;91.60;99464.30;214075;1310;25365;-74
2022/12/02 19:43:58;;;;;;;25.20;11.70;;;;;;;-1.39;91.60;99467.06;214002;1310;22511;-73
2022/12/02 19:49:04;;;;;;;21.70;9.80;;;;;;;-1.37;91.91;99461.40;213836;1310;25220;-73
2022/12/02 19:54:06;;;;;;;25.60;11.20;;;;;;;-1.36;91.85;99456.67;214197;1304;22481;-73
2022/12/02 19:59:09;;;;;;;26.30;10.60;;;;;;;-1.34;91.88;99457.27;214063;1294;22646;-73
2022/12/02 20:04:11;;;;;;;23.60;11.00;;;;;;;-1.29;91.88;99451.73;213970;1310;22612;-73
2022/12/02 20:09:33;;;;;;;27.00;11.80;;;;;;;-1.27;91.99;99447.48;213951;1310;23786;-72
2022/12/02 20:14:35;;;;;;;26.30;10.30;;;;;;;-1.25;92.08;99447.20;214084;1310;22567;-72
2022/12/02 20:19:37;;;;;;;28.90;12.80;;;;;;;-1.23;92.03;99448.27;213947;1311;23220;-74
2022/12/02 20:24:39;;;;;;;23.60;10.80;;;;;;;-1.23;92.14;99446.80;214145;1310;22552;-73
2022/12/02 20:29:40;;;;;;;26.80;11.50;;;;;;;-1.18;92.22;99444.84;213900;1310;24531;-72
2022/12/02 20:34:43;;;;;;;27.10;11.40;;;;;;;-1.17;92.14;99441.61;214005;1304;22553;-72
2022/12/02 20:39:45;;;;;;;29.50;12.60;;;;;;;-1.17;92.13;99440.59;214058;1312;25359;-74
2022/12/02 20:44:46;;;;;;;27.70;11.80;;;;;;;-1.12;92.44;99441.20;213992;1311;24305;-73
2022/12/02 20:49:53;;;;;;;25.90;11.60;;;;;;;-1.08;91.92;99435.91;214010;1311;25257;-74
2022/12/02 20:54:55;;;;;;;20.50;10.80;;;;;;;-1.03;92.19;99440.90;213972;1307;23017;-73
2022/12/02 20:59:57;;;;;;;25.00;11.60;;;;;;;-1.02;92.36;99439.05;214068;1311;23262;-73
2022/12/02 21:04:59;;;;;;;27.20;12.30;;;;;;;-1.00;91.92;99437.07;214004;1311;24818;-72
2022/12/02 21:10:01;;;;;;;26.10;13.10;;;;;;;-0.99;91.97;99434.45;214033;1312;25557;-73
2022/12/02 21:15:03;;;;;;;21.90;11.40;;;;;;;-0.94;91.97;99434.19;214061;1313;22581;-73
2022/12/02 21:20:06;;;;;;;23.50;10.90;;;;;;;-0.92;92.09;99427.23;214055;1311;26509;-73
2022/12/02 21:25:08;;;;;;;30.00;11.90;;;;;;;-0.91;91.88;99423.75;214121;1311;24323;-72
2022/12/02 21:30:10;;;;;;;22.20;11.00;;;;;;;-0.92;91.54;99425.86;213898;1313;22599;-73
2022/12/02 21:35:12;;;;;;;29.80;12.90;;;;;;;-0.93;91.73;99430.14;213957;1313;25300;-73
2022/12/02 21:40:16;;;;;;;28.10;12.10;;;;;;;-0.90;91.72;99428.98;214001;1310;25501;-73
2022/12/02 21:45:18;;;;;;;30.00;11.70;;;;;;;-0.91;91.80;99431.16;214064;1311;24447;-72
2022/12/02 21:50:19;;;;;;;31.20;12.80;;;;;;;-0.92;91.51;99439.91;214144;1309;22468;-72
2022/12/02 21:55:21;;;;;;;27.40;11.60;;;;;;;-0.91;91.70;99441.04;214119;1311;22499;-73
2022/12/02 22:00:23;;;;;;;25.20;11.60;;;;;;;-0.92;91.62;99439.90;214018;1311;26337;-72
2022/12/02 22:05:25;;;;;;;25.80;11.60;;;;;;;-0.91;91.73;99439.26;213879;1313;22522;-72
2022/12/02 22:10:27;;;;;;;28.30;12.00;;;;;;;-0.93;91.45;99437.87;213953;1312;25605;-73
2022/12/02 22:15:29;;;;;;;28.10;12.40;;;;;;;-0.91;91.63;99438.04;214102;1312;22466;-72
2022/12/02 22:20:31;;;;;;;27.60;12.10;;;;;;;-0.88;91.72;99443.79;214050;1313;24036;-73
2022/12/02 22:25:32;;;;;;;28.90;12.80;;;;;;;-0.88;91.66;99443.40;214140;1304;22676;-73
2022/12/02 22:30:34;;;;;;;33.70;13.00;;;;;;;-0.85;91.74;99443.52;214163;1312;25155;-72
2022/12/02 22:35:37;;;;;;;26.50;11.80;;;;;;;-0.83;91.46;99443.56;214100;1312;22539;-72
2022/12/02 22:40:39;;;;;;;29.60;12.90;;;;;;;-0.83;91.54;99439.08;213980;1310;141385;-72
2022/12/02 22:45:40;;;;;;;26.30;12.40;;;;;;;-0.83;91.61;99434.38;214298;1311;24480;-73
2022/12/02 22:50:42;;;;;;;26.20;12.50;;;;;;;-0.83;91.47;99431.39;214088;1312;22557;-72
2022/12/02 22:55:45;;;;;;;26.30;12.20;;;;;;;-0.82;91.61;99432.37;214211;1311;22554;-73
2022/12/02 23:00:47;;;;;;;32.00;14.00;;;;;;;-0.84;91.36;99425.88;213948;1312;25277;-73
2022/12/02 23:05:49;;;;;;;29.10;12.20;;;;;;;-0.84;91.54;99426.29;214230;1313;24354;-73
2022/12/02 23:10:51;;;;;;;33.90;13.90;;;;;;;-0.82;91.65;99422.90;214147;1312;23470;-73
2022/12/02 23:15:52;;;;;;;31.40;13.90;;;;;;;-0.79;91.72;99428.48;214157;1303;22480;-72
2022/12/02 23:20:54;;;;;;;31.50;13.60;;;;;;;-0.79;91.65;99434.96;214108;1313;24064;-72